Isle of Eigg, United Kingdom
Current Conditions -  °F | °C
As of 6:50 PM on Friday 24 Oct 2014 (Local Time) from EGPU Reporting Station
Few Clouds Few Clouds  
Wind Chill: 50°   Ceiling: Unl
Heat Index: 50°   Visibility: 6mi
Dew Point: 45°   Wind: 22mph
Humidity: 82%   Direction: 240°WSW
Pressure: 29.59"   Gusts: NA
Location:  56.9°N, 6.14°W
Report Text: EGPU 241750Z AUTO 24019KT 210V270 9999 FEW027/// 10/07 Q1002 RERA
Loading
Personal Weather Stations






























Interactive Weather Map
Tropical Storm Tracking
New forecast layout! Learn more

10-Day Weather Forecast

Advertisements
Track Severe Weather on mobile